createdAt,value
2023-01-06T00:01:34.473Z,12.30
2023-01-06T00:04:03.083Z,11.02
2023-01-06T00:06:31.205Z,12.02
2023-01-06T00:09:02.998Z,11.85
2023-01-06T00:11:30.965Z,12.05
2023-01-06T00:13:59.307Z,13.40
2023-01-06T00:16:26.421Z,13.40
2023-01-06T00:18:59.005Z,15.23
2023-01-06T00:21:26.779Z,12.60
2023-01-06T00:23:54.166Z,13.23
2023-01-06T00:26:21.773Z,11.70
2023-01-06T00:28:52.914Z,12.70
2023-01-06T00:31:19.883Z,10.85
2023-01-06T00:33:46.743Z,16.08
2023-01-06T00:36:14.914Z,13.60
2023-01-06T00:38:41.796Z,13.00
2023-01-06T00:41:31.321Z,10.93
2023-01-06T00:43:59.658Z,30.92
2023-01-06T00:46:31.467Z,14.75
2023-01-06T00:49:05.030Z,10.23
2023-01-06T00:51:33.418Z,12.75
2023-01-06T00:54:00.651Z,11.07
2023-01-06T00:56:27.512Z,9.75
2023-01-06T00:58:54.526Z,8.82
2023-01-06T01:01:21.466Z,11.95
2023-01-06T01:03:48.429Z,9.90
2023-01-06T01:06:16.100Z,11.63
2023-01-06T01:08:43.745Z,10.32
2023-01-06T01:11:33.003Z,11.00
2023-01-06T01:14:00.097Z,7.40
2023-01-06T01:16:27.015Z,6.70
2023-01-06T01:18:53.910Z,7.40
2023-01-06T01:21:20.737Z,7.28
2023-01-06T01:23:47.525Z,8.00
2023-01-06T01:26:14.988Z,8.35
2023-01-06T01:28:42.444Z,6.85
2023-01-06T01:31:09.856Z,6.85
2023-01-06T01:33:37.950Z,7.20
2023-01-06T01:36:15.659Z,9.13
2023-01-06T01:38:42.830Z,9.50
2023-01-06T01:41:17.756Z,9.68
2023-01-06T01:43:52.065Z,11.48
2023-01-06T01:46:42.687Z,8.05
2023-01-06T01:49:23.178Z,11.05
2023-01-06T01:51:56.600Z,12.48
2023-01-06T01:54:29.791Z,6.93
2023-01-06T01:57:07.516Z,9.20
2023-01-06T01:59:38.686Z,13.30
2023-01-06T02:02:05.724Z,12.25
2023-01-06T02:04:39.299Z,9.48
2023-01-06T02:07:06.759Z,10.35
2023-01-06T02:10:02.591Z,8.10
2023-01-06T02:12:30.634Z,9.60
2023-01-06T02:14:57.552Z,7.78
2023-01-06T02:17:29.903Z,19.20
2023-01-06T02:20:46.097Z,12.63
2023-01-06T02:23:25.790Z,10.02
2023-01-06T02:26:22.263Z,9.15
2023-01-06T02:29:04.154Z,8.75
2023-01-06T02:32:18.530Z,8.05
2023-01-06T02:35:31.961Z,14.93
2023-01-06T02:38:18.381Z,11.82
2023-01-06T02:41:21.378Z,12.20
2023-01-06T02:44:32.421Z,10.75
2023-01-06T02:47:30.292Z,10.98
2023-01-06T02:50:25.026Z,15.32
2023-01-06T02:53:19.562Z,13.43
2023-01-06T02:55:54.328Z,13.35
2023-01-06T02:58:53.463Z,12.52
2023-01-06T03:01:33.353Z,12.65
2023-01-06T03:04:07.055Z,14.40
2023-01-06T03:06:37.245Z,15.90
2023-01-06T03:09:06.500Z,12.35
2023-01-06T03:11:35.776Z,8.82
2023-01-06T03:14:32.099Z,8.63
2023-01-06T03:17:00.678Z,10.32
2023-01-06T03:19:28.008Z,13.57
2023-01-06T03:21:56.451Z,15.25
2023-01-06T03:24:23.576Z,13.30
2023-01-06T03:26:53.850Z,12.35
2023-01-06T03:29:23.301Z,12.85
2023-01-06T03:32:05.121Z,11.25
2023-01-06T03:35:28.538Z,10.05
2023-01-06T03:38:27.971Z,12.20
2023-01-06T03:41:14.886Z,12.13
2023-01-06T03:44:10.082Z,13.65
2023-01-06T03:46:55.386Z,12.90
2023-01-06T03:49:34.776Z,14.23
2023-01-06T03:52:27.900Z,17.58
2023-01-06T03:55:17.145Z,20.95
2023-01-06T03:57:49.695Z,16.10
2023-01-06T04:00:26.860Z,10.10
2023-01-06T04:02:54.038Z,12.25
2023-01-06T04:05:25.247Z,12.15
2023-01-06T04:07:52.081Z,13.27
2023-01-06T04:10:22.083Z,15.73
2023-01-06T04:12:49.039Z,10.68
2023-01-06T04:15:24.017Z,9.57
2023-01-06T04:17:52.166Z,13.05
2023-01-06T04:20:25.579Z,11.75
2023-01-06T04:22:57.991Z,9.70
2023-01-06T04:25:25.675Z,13.00
2023-01-06T04:27:52.986Z,15.40
2023-01-06T04:30:19.934Z,16.75
2023-01-06T04:32:46.814Z,13.68
2023-01-06T04:35:13.669Z,12.10
2023-01-06T04:37:40.528Z,11.18
2023-01-06T04:40:08.259Z,13.18
2023-01-06T04:42:55.301Z,9.77
2023-01-06T04:45:22.933Z,17.45
2023-01-06T04:47:49.830Z,16.13
2023-01-06T04:50:17.184Z,12.48
2023-01-06T04:52:44.535Z,11.52
2023-01-06T04:55:11.762Z,14.00
2023-01-06T04:57:38.608Z,15.45
2023-01-06T05:00:06.695Z,12.02
2023-01-06T05:02:33.717Z,11.98
2023-01-06T05:05:00.534Z,12.07
2023-01-06T05:07:27.433Z,9.82
2023-01-06T05:09:54.287Z,10.45
2023-01-06T05:12:21.199Z,11.27
2023-01-06T05:14:48.080Z,12.05
2023-01-06T05:17:15.014Z,10.60
2023-01-06T05:19:42.980Z,7.38
2023-01-06T05:22:11.500Z,9.77
2023-01-06T05:24:38.750Z,9.50
2023-01-06T05:27:05.729Z,12.48
2023-01-06T05:29:33.138Z,11.25
2023-01-06T05:32:00.260Z,10.73
2023-01-06T05:34:27.688Z,22.20
2023-01-06T05:36:56.126Z,16.40
2023-01-06T05:39:23.695Z,15.45
2023-01-06T05:41:50.871Z,13.93
2023-01-06T05:44:19.444Z,10.40
2023-01-06T05:46:47.625Z,12.70
2023-01-06T05:49:14.503Z,14.50
2023-01-06T05:51:41.425Z,10.43
2023-01-06T05:54:10.099Z,10.43
2023-01-06T05:56:37.058Z,10.60
2023-01-06T05:59:04.242Z,7.53
2023-01-06T06:01:32.803Z,7.50
2023-01-06T06:04:00.143Z,7.60
2023-01-06T06:06:29.786Z,8.70
2023-01-06T06:08:58.138Z,9.55
2023-01-06T06:11:25.387Z,7.85
2023-01-06T06:13:58.828Z,8.68
2023-01-06T06:16:28.577Z,6.78
2023-01-06T06:18:58.802Z,7.18
2023-01-06T06:21:29.567Z,8.10
2023-01-06T06:23:58.678Z,8.88
2023-01-06T06:26:26.265Z,9.73
2023-01-06T06:28:53.429Z,8.95
2023-01-06T06:31:27.319Z,9.15
2023-01-06T06:33:58.231Z,5.93
2023-01-06T06:36:25.912Z,7.78
2023-01-06T06:38:55.107Z,7.07
2023-01-06T06:41:24.183Z,7.82
2023-01-06T06:43:51.791Z,9.85
2023-01-06T06:46:20.157Z,8.52
2023-01-06T06:48:47.361Z,6.60
2023-01-06T06:51:17.037Z,14.30
2023-01-06T06:53:45.038Z,8.40
2023-01-06T06:56:13.734Z,10.50
2023-01-06T06:58:40.979Z,9.73
2023-01-06T07:01:12.357Z,7.93
2023-01-06T07:03:40.370Z,10.27
2023-01-06T07:06:10.154Z,6.72
2023-01-06T07:08:37.444Z,10.48
2023-01-06T07:11:05.213Z,11.88
2023-01-06T07:13:32.073Z,7.70
2023-01-06T07:15:59.015Z,7.50
2023-01-06T07:18:25.981Z,10.40
2023-01-06T07:20:53.983Z,8.55
2023-01-06T07:23:23.080Z,8.95
2023-01-06T07:25:59.735Z,9.35
2023-01-06T07:28:29.500Z,7.85
2023-01-06T07:30:56.648Z,6.22
2023-01-06T07:33:23.949Z,7.97
2023-01-06T07:35:55.702Z,7.95
2023-01-06T07:38:23.366Z,8.20
2023-01-06T07:40:50.337Z,8.15
2023-01-06T07:43:17.267Z,8.10
2023-01-06T07:45:47.991Z,10.10
2023-01-06T07:48:15.139Z,8.48
2023-01-06T07:50:42.025Z,11.15
2023-01-06T07:53:09.796Z,9.77
2023-01-06T07:55:37.151Z,8.52
2023-01-06T07:58:09.216Z,12.18
2023-01-06T08:00:37.377Z,9.93
2023-01-06T08:03:07.338Z,8.93
2023-01-06T08:05:38.743Z,8.27
2023-01-06T08:08:05.697Z,8.68
2023-01-06T08:10:32.791Z,7.72
2023-01-06T08:12:59.895Z,8.23
2023-01-06T08:15:26.826Z,9.10
2023-01-06T08:17:54.907Z,7.80
2023-01-06T08:20:23.624Z,9.57
2023-01-06T08:22:50.521Z,8.30
2023-01-06T08:25:17.449Z,7.63
2023-01-06T08:27:44.377Z,12.15
2023-01-06T08:30:11.906Z,8.98
2023-01-06T08:32:38.799Z,7.20
2023-01-06T08:35:06.241Z,8.00
2023-01-06T08:37:33.137Z,10.38
2023-01-06T08:40:00.101Z,11.18
2023-01-06T08:42:27.124Z,9.00
2023-01-06T08:44:53.992Z,10.15
2023-01-06T08:47:20.947Z,12.68
2023-01-06T08:49:47.920Z,10.95
2023-01-06T08:52:14.822Z,12.32
2023-01-06T08:54:41.674Z,12.93
2023-01-06T08:57:09.202Z,9.43
2023-01-06T08:59:36.181Z,10.77
2023-01-06T09:15:56.121Z,7.47
2023-01-06T09:18:23.030Z,7.28
2023-01-06T09:20:49.943Z,8.60
2023-01-06T09:23:16.859Z,8.57
2023-01-06T09:25:43.784Z,8.20
2023-01-06T09:28:10.722Z,10.65
2023-01-06T09:30:37.548Z,7.57
2023-01-06T09:33:04.421Z,9.73
2023-01-06T09:35:31.287Z,12.85
2023-01-06T09:37:58.189Z,8.27
2023-01-06T09:40:50.030Z,8.70
2023-01-06T09:44:06.296Z,7.97
2023-01-06T09:46:43.109Z,9.98
2023-01-06T09:49:52.166Z,8.68
2023-01-06T09:52:36.194Z,9.25
2023-01-06T09:55:11.964Z,11.30
2023-01-06T09:57:47.043Z,9.93
2023-01-06T10:00:53.184Z,9.60
2023-01-06T10:03:25.006Z,8.43
2023-01-06T10:06:19.118Z,10.25
2023-01-06T10:09:26.347Z,11.27
2023-01-06T10:12:32.360Z,10.65
2023-01-06T10:15:28.753Z,15.93
2023-01-06T10:18:25.556Z,12.90
2023-01-06T10:20:55.445Z,9.70
2023-01-06T10:23:43.192Z,9.20
2023-01-06T10:26:26.087Z,11.40
2023-01-06T10:29:01.660Z,19.60
2023-01-06T10:31:37.123Z,12.25
2023-01-06T10:34:11.512Z,11.90
2023-01-06T10:36:43.332Z,9.05
2023-01-06T10:39:21.392Z,10.25
2023-01-06T10:42:16.829Z,12.50
2023-01-06T10:44:43.800Z,11.43
2023-01-06T10:47:25.547Z,11.57
2023-01-06T10:49:52.689Z,10.30
2023-01-06T10:52:22.837Z,15.32
2023-01-06T10:54:56.686Z,10.93
2023-01-06T10:57:31.229Z,12.05
2023-01-06T11:00:22.482Z,11.85
2023-01-06T11:03:31.462Z,10.65
2023-01-06T11:06:23.090Z,11.90
2023-01-06T11:08:50.003Z,13.40
2023-01-06T11:11:34.449Z,11.75
2023-01-06T11:14:05.546Z,14.80
2023-01-06T11:16:37.596Z,14.70
2023-01-06T11:19:20.262Z,12.85
2023-01-06T11:21:47.334Z,14.35
2023-01-06T11:24:25.252Z,12.35
2023-01-06T11:27:02.768Z,14.70
2023-01-06T11:29:35.009Z,15.68
2023-01-06T11:32:22.694Z,14.23
2023-01-06T11:35:06.457Z,13.43
2023-01-06T11:37:43.841Z,12.88
2023-01-06T11:40:37.543Z,13.73
2023-01-06T11:43:19.168Z,13.93
2023-01-06T11:45:55.554Z,23.27
2023-01-06T11:48:47.876Z,21.13
2023-01-06T11:51:15.815Z,13.57
2023-01-06T11:53:57.293Z,12.07
2023-01-06T11:56:25.060Z,14.27
2023-01-06T11:59:11.561Z,12.57
2023-01-06T12:02:13.650Z,11.18
2023-01-06T12:04:49.710Z,10.27
2023-01-06T12:07:48.981Z,13.15
2023-01-06T12:10:26.503Z,11.15
2023-01-06T12:12:55.000Z,11.48
2023-01-06T12:15:24.352Z,12.55
2023-01-06T12:17:58.104Z,14.55
2023-01-06T12:20:32.915Z,10.15
2023-01-06T12:23:11.211Z,10.23
2023-01-06T12:25:46.360Z,11.35
2023-01-06T12:28:31.472Z,13.32
2023-01-06T12:31:21.124Z,13.88
2023-01-06T12:34:12.904Z,12.40
2023-01-06T12:36:49.628Z,11.85
2023-01-06T12:39:36.752Z,12.55
2023-01-06T12:42:26.194Z,14.10
2023-01-06T12:45:04.577Z,13.48
2023-01-06T12:47:44.319Z,14.90
2023-01-06T12:50:39.692Z,13.52
2023-01-06T12:53:32.309Z,12.55
2023-01-06T12:56:42.118Z,11.33
2023-01-06T12:59:23.924Z,12.45
2023-01-06T13:02:19.426Z,14.30
2023-01-06T13:05:16.960Z,14.48
2023-01-06T13:08:32.126Z,25.83
2023-01-06T13:11:31.657Z,13.95
2023-01-06T13:14:38.259Z,19.00
2023-01-06T13:17:32.108Z,13.70
2023-01-06T13:20:06.008Z,15.80
2023-01-06T13:23:11.941Z,16.25
2023-01-06T13:26:23.511Z,14.77
2023-01-06T13:29:31.090Z,13.93
2023-01-06T13:32:20.150Z,14.90
2023-01-06T13:35:13.498Z,15.23
2023-01-06T13:40:27.004Z,15.35
2023-01-06T13:43:09.332Z,16.45
2023-01-06T13:45:53.004Z,11.40
2023-01-06T13:48:30.249Z,17.30
2023-01-06T13:51:03.616Z,14.90
2023-01-06T13:53:38.779Z,17.48
2023-01-06T13:56:14.775Z,15.23
2023-01-06T13:58:43.218Z,19.20
2023-01-06T14:01:34.189Z,16.65
2023-01-06T14:04:28.858Z,17.60
2023-01-06T14:06:56.315Z,15.95
2023-01-06T14:09:23.437Z,17.98
2023-01-06T14:11:50.893Z,17.55
2023-01-06T14:14:25.255Z,19.73
2023-01-06T14:16:54.506Z,17.58
2023-01-06T14:19:27.937Z,21.65
2023-01-06T14:22:12.761Z,19.58
2023-01-06T14:24:49.885Z,20.63
2023-01-06T14:27:36.906Z,16.85
2023-01-06T14:30:20.398Z,18.80
2023-01-06T14:32:47.300Z,16.75
2023-01-06T14:35:32.878Z,23.13
2023-01-06T14:38:06.537Z,19.55
2023-01-06T14:40:47.920Z,21.40
2023-01-06T14:43:41.985Z,23.40
2023-01-06T14:46:29.907Z,20.80
2023-01-06T14:49:04.881Z,20.48
2023-01-06T14:51:34.446Z,17.75
2023-01-06T14:54:07.855Z,18.75
2023-01-06T14:56:34.846Z,17.83
2023-01-06T14:59:15.882Z,17.40
2023-01-06T15:01:44.960Z,16.83
2023-01-06T15:04:34.089Z,20.52
2023-01-06T15:07:19.568Z,18.25
2023-01-06T15:09:49.980Z,19.90
2023-01-06T15:12:33.497Z,22.40
2023-01-06T15:15:26.815Z,19.52
2023-01-06T15:17:56.569Z,21.05
2023-01-06T15:20:32.658Z,18.65
2023-01-06T15:23:01.373Z,20.75
2023-01-06T15:25:30.707Z,24.50
2023-01-06T15:27:57.779Z,22.63
2023-01-06T15:30:35.817Z,24.23
2023-01-06T15:33:04.060Z,31.05
2023-01-06T15:35:34.319Z,37.03
2023-01-06T15:38:23.671Z,28.70
2023-01-06T15:40:51.629Z,30.35
2023-01-06T15:43:23.204Z,24.08
2023-01-06T15:46:05.731Z,24.02
2023-01-06T15:48:37.205Z,24.90
2023-01-06T15:51:14.290Z,25.52
2023-01-06T15:53:42.695Z,38.90
2023-01-06T15:56:22.762Z,22.30
2023-01-06T15:58:54.647Z,33.22
2023-01-06T16:01:24.670Z,25.65
2023-01-06T16:04:00.982Z,26.17
2023-01-06T16:06:37.278Z,25.38
2023-01-06T16:09:30.810Z,33.83
2023-01-06T16:12:04.079Z,44.47
2023-01-06T16:14:47.493Z,36.95
2023-01-06T16:17:28.316Z,18.63
2023-01-06T16:20:22.545Z,20.58
2023-01-06T16:22:57.104Z,19.33
2023-01-06T16:25:35.724Z,20.95
2023-01-06T16:28:05.714Z,21.42
2023-01-06T16:30:36.238Z,19.00
2023-01-06T16:33:04.619Z,19.10
2023-01-06T16:35:34.364Z,19.80
2023-01-06T16:38:03.097Z,19.00
2023-01-06T16:40:32.105Z,20.88
2023-01-06T16:43:02.896Z,17.90
2023-01-06T16:45:35.784Z,18.30
2023-01-06T16:50:42.402Z,19.60
2023-01-06T16:53:18.396Z,18.25
2023-01-06T16:55:51.781Z,21.02
2023-01-06T16:58:29.112Z,19.25
2023-01-06T17:01:08.519Z,21.38
2023-01-06T17:03:38.472Z,20.90
2023-01-06T17:06:19.676Z,27.02
2023-01-06T17:08:48.435Z,23.42
2023-01-06T17:11:26.908Z,21.67
2023-01-06T17:13:59.164Z,24.77
2023-01-06T17:16:33.029Z,22.10
2023-01-06T17:19:19.673Z,23.17
2023-01-06T17:21:48.844Z,21.45
2023-01-06T17:24:21.338Z,21.73
2023-01-06T17:27:25.421Z,24.15
2023-01-06T17:29:54.193Z,20.27
2023-01-06T17:32:37.899Z,21.02
2023-01-06T17:35:30.897Z,22.63
2023-01-06T17:38:22.219Z,22.35
2023-01-06T17:40:51.438Z,20.50
2023-01-06T17:43:33.575Z,22.98
2023-01-06T17:46:03.391Z,22.80
2023-01-06T17:48:32.225Z,22.13
2023-01-06T17:50:59.504Z,23.63
2023-01-06T17:53:56.211Z,22.75
2023-01-06T17:56:25.941Z,22.95
2023-01-06T17:58:53.870Z,22.50
2023-01-06T18:01:30.913Z,22.27
2023-01-06T18:04:00.331Z,24.75
2023-01-06T18:06:37.359Z,21.20
2023-01-06T18:09:12.443Z,22.95
2023-01-06T18:11:44.034Z,22.80
2023-01-06T18:14:38.980Z,22.45
2023-01-06T18:17:24.182Z,25.63
2023-01-06T18:19:52.426Z,20.98
2023-01-06T18:22:23.622Z,21.17
2023-01-06T18:25:00.426Z,24.42
2023-01-06T18:27:35.326Z,22.65
2023-01-06T18:30:15.820Z,28.08
2023-01-06T18:32:46.856Z,52.25
2023-01-06T18:35:30.203Z,40.63
2023-01-06T18:38:02.798Z,32.00
2023-01-06T18:40:31.690Z,21.17
2023-01-06T18:42:59.243Z,24.67
2023-01-06T18:45:36.420Z,41.42
2023-01-06T18:48:13.032Z,43.75
2023-01-06T18:50:43.471Z,40.63
2023-01-06T18:53:13.909Z,38.50
2023-01-06T18:55:46.180Z,40.47
2023-01-06T18:58:38.845Z,32.17
2023-01-06T19:01:25.666Z,68.25
2023-01-06T19:04:22.441Z,103.25
2023-01-06T19:07:18.074Z,57.17
2023-01-06T19:09:48.867Z,37.05
2023-01-06T19:12:33.894Z,36.45
2023-01-06T19:15:24.860Z,37.13
2023-01-06T19:17:54.601Z,36.00
2023-01-06T19:20:31.157Z,51.45
2023-01-06T19:22:58.223Z,56.05
2023-01-06T19:25:40.673Z,32.47
2023-01-06T19:28:31.158Z,25.10
2023-01-06T19:31:22.246Z,30.30
2023-01-06T19:34:01.585Z,28.83
2023-01-06T19:36:48.209Z,23.23
2023-01-06T19:39:26.683Z,24.83
2023-01-06T19:41:59.912Z,35.95
2023-01-06T19:44:34.743Z,40.42
2023-01-06T19:47:18.673Z,35.63
2023-01-06T19:49:53.120Z,46.55
2023-01-06T19:52:29.319Z,39.35
2023-01-06T19:55:10.770Z,27.48
2023-01-06T19:57:43.557Z,30.23
2023-01-06T20:00:47.877Z,35.00
2023-01-06T20:03:44.133Z,42.90
2023-01-06T20:06:13.255Z,50.53
2023-01-06T20:08:44.079Z,51.60
2023-01-06T20:11:12.222Z,55.25
2023-01-06T20:13:39.402Z,60.85
2023-01-06T20:16:07.493Z,49.80
2023-01-06T20:18:34.702Z,54.53
2023-01-06T20:21:03.384Z,69.40
2023-01-06T20:23:30.658Z,58.25
2023-01-06T20:25:59.330Z,61.65
2023-01-06T20:28:27.813Z,60.65
2023-01-06T20:30:55.094Z,47.60
2023-01-06T20:33:22.384Z,62.33
2023-01-06T20:35:50.397Z,51.17
2023-01-06T20:38:17.755Z,44.80
2023-01-06T20:40:47.330Z,49.83
2023-01-06T20:43:14.518Z,50.67
2023-01-06T20:45:42.723Z,45.90
2023-01-06T20:48:09.778Z,41.92
2023-01-06T20:50:42.554Z,43.13
2023-01-06T20:53:13.079Z,41.17
2023-01-06T20:55:40.420Z,45.72
2023-01-06T20:58:08.415Z,55.25
2023-01-06T21:00:35.635Z,60.50
2023-01-06T21:03:02.618Z,65.32
2023-01-06T21:05:29.743Z,61.83
2023-01-06T21:07:57.076Z,56.10
2023-01-06T21:10:24.354Z,58.97
2023-01-06T21:12:51.904Z,57.17
2023-01-06T21:15:19.517Z,50.75
2023-01-06T21:17:46.660Z,65.53
2023-01-06T21:20:13.886Z,65.75
2023-01-06T21:22:40.950Z,60.45
2023-01-06T21:25:08.464Z,60.83
2023-01-06T21:27:35.457Z,56.08
2023-01-06T21:30:02.920Z,64.60
2023-01-06T21:32:30.046Z,447.95
2023-01-06T21:34:58.617Z,434.13
2023-01-06T21:37:25.685Z,121.55
2023-01-06T21:39:52.943Z,129.55
2023-01-06T21:42:38.402Z,107.50
2023-01-06T21:45:07.026Z,114.10
2023-01-06T21:47:33.940Z,102.38
2023-01-06T21:50:01.149Z,91.03
2023-01-06T21:52:28.233Z,75.88
2023-01-06T21:54:55.835Z,82.10
2023-01-06T21:57:23.137Z,69.47
2023-01-06T21:59:50.167Z,100.55
2023-01-06T22:02:17.746Z,76.35
2023-01-06T22:04:44.815Z,60.03
2023-01-06T22:07:13.072Z,69.32
2023-01-06T22:09:42.953Z,72.55
2023-01-06T22:12:15.472Z,95.47
2023-01-06T22:14:44.183Z,84.60
2023-01-06T22:17:13.982Z,68.78
2023-01-06T22:19:44.349Z,83.57
2023-01-06T22:22:13.967Z,90.00
2023-01-06T22:24:41.923Z,68.57
2023-01-06T22:27:10.142Z,68.78
2023-01-06T22:29:37.376Z,57.63
2023-01-06T22:32:06.703Z,72.82
2023-01-06T22:34:34.120Z,56.25
2023-01-06T22:37:01.350Z,87.65
2023-01-06T22:39:28.435Z,83.20
2023-01-06T22:41:55.646Z,112.15
2023-01-06T22:44:22.754Z,127.70
2023-01-06T22:46:50.514Z,127.28
2023-01-06T22:49:17.614Z,104.68
2023-01-06T22:51:44.482Z,166.98
2023-01-06T22:54:11.618Z,90.85
2023-01-06T22:56:41.756Z,100.25
2023-01-06T22:59:09.278Z,125.97
2023-01-06T23:01:36.561Z,144.82
2023-01-06T23:04:04.257Z,100.63
2023-01-06T23:06:31.656Z,133.38
2023-01-06T23:09:00.632Z,164.65
2023-01-06T23:11:32.773Z,155.38
2023-01-06T23:14:00.532Z,151.50
2023-01-06T23:16:30.419Z,154.52
2023-01-06T23:18:57.583Z,136.98
2023-01-06T23:21:27.346Z,113.38
2023-01-06T23:23:54.995Z,170.68
2023-01-06T23:26:33.951Z,166.93
2023-01-06T23:29:01.189Z,128.50
2023-01-06T23:31:31.457Z,95.55
2023-01-06T23:34:04.514Z,98.28
2023-01-06T23:39:00.806Z,77.45
2023-01-06T23:41:31.477Z,53.35
2023-01-06T23:43:59.136Z,58.42
2023-01-06T23:46:36.882Z,60.83
2023-01-06T23:49:04.881Z,50.97
2023-01-06T23:51:33.189Z,60.88
2023-01-06T23:54:02.677Z,62.78
2023-01-06T23:56:32.218Z,59.00
2023-01-06T23:59:02.367Z,53.60
